This is the latest recevied weather packets stored in our database for station/object WS2Z. If no packets are shown the sender has not sent any weather packets the latest 10 day(s).
| Time | Temp. | Humidity | Pressure | Rain* | Wind** | Luminosity | Snow |
|---|---|---|---|---|---|---|---|
| 1777412396 | 28.89° C | 66% | 1016.5 hPa | 0 mm | - | 121 W/m² | - |
| 1777412096 | 28.89° C | 66% | 1016.7 hPa | 0 mm | - | 130 W/m² | - |
| 1777411791 | 28.89° C | 66% | 1016.5 hPa | 0 mm | - | 144 W/m² | - |
| 1777411490 | 28.89° C | 66% | 1016.6 hPa | 0 mm | - | 155 W/m² | - |
| 1777411190 | 28.89° C | 66% | 1016.6 hPa | 0 mm | - | 125 W/m² | - |
| 1777410885 | 28.89° C | 66% | 1016.4 hPa | 0 mm | - | 119 W/m² | - |
| 1777410579 | 29.44° C | 65% | 1016.5 hPa | 0 mm | - | 164 W/m² | - |
| 1777410279 | 29.44° C | 66% | 1016.5 hPa | 0 mm | - | 225 W/m² | - |
| 1777409974 | 29.44° C | 64% | 1016.8 hPa | 0 mm | - | 164 W/m² | - |
| 1777409668 | 28.89° C | 65% | 1016.7 hPa | 0 mm | - | 148 W/m² | - |
| 1777409365 | 30° C | 63% | 1016.9 hPa | 0 mm | - | 119 W/m² | - |
| 1777409060 | 31.11° C | 60% | 1016.7 hPa | 0 mm | - | 514 W/m² | - |
| 1777408757 | 32.22° C | 56% | 1016.8 hPa | 0 mm | - | 438 W/m² | - |
| 1777408454 | 33.33° C | 44% | 1016.7 hPa | 0 mm | - | 191 W/m² | - |
| 1777408148 | 33.33° C | 37% | 1016.7 hPa | 0 mm | - | 173 W/m² | - |
| 1777407843 | 33.33° C | 37% | 1016.8 hPa | 0 mm | - | 561 W/m² | - |
| 1777407542 | 32.78° C | 37% | 1016.8 hPa | 0 mm | - | 569 W/m² | - |
| 1777407240 | 32.22° C | 39% | 1017 hPa | 0 mm | - | 576 W/m² | - |
| 1777406935 | 31.67° C | 40% | 1016.8 hPa | 0 mm | - | 448 W/m² | - |
| 1777406630 | 32.22° C | 41% | 1016.7 hPa | 0 mm | - | 139 W/m² | - |
| 1777406327 | 32.78° C | 40% | 1017 hPa | 0 mm | - | 561 W/m² | - |
| 1777406026 | 33.89° C | 39% | 1016.9 hPa | 0 mm | - | 214 W/m² | - |
| 1777405723 | 33.33° C | 38% | 1017 hPa | 0 mm | - | 677 W/m² | - |
| 1777405419 | 32.78° C | 40% | 1017.2 hPa | 0 mm | - | 673 W/m² | - |
| 1777405116 | 33.33° C | 39% | 1017.1 hPa | 0 mm | - | 666 W/m² | - |
* Rain latest hour (hover to see other rain measurements)
** Current wind speed in m/s (hover to see current wind gust speed)